createdAt,value
2022-09-07T00:00:53.511Z,60.33
2022-09-07T00:03:21.709Z,60.04
2022-09-07T00:05:50.918Z,60.45
2022-09-07T00:08:21.499Z,60.73
2022-09-07T00:10:56.714Z,61.73
2022-09-07T00:13:25.932Z,62.21
2022-09-07T00:15:53.065Z,61.81
2022-09-07T00:18:20.114Z,61.88
2022-09-07T00:20:47.496Z,62.23
2022-09-07T00:23:14.417Z,62.28
2022-09-07T00:25:41.402Z,62.54
2022-09-07T00:28:09.146Z,63.12
2022-09-07T00:30:41.883Z,64.72
2022-09-07T00:33:09.852Z,64.97
2022-09-07T00:35:41.392Z,65.41
2022-09-07T00:38:09.403Z,65.83
2022-09-07T00:40:36.641Z,65.84
2022-09-07T00:43:04.902Z,65.96
2022-09-07T00:45:32.450Z,65.78
2022-09-07T00:48:10.115Z,66.43
2022-09-07T00:50:46.325Z,67.01
2022-09-07T00:53:19.812Z,66.97
2022-09-07T00:55:49.392Z,67.50
2022-09-07T00:58:17.595Z,67.97
2022-09-07T01:00:46.729Z,68.20
2022-09-07T01:03:18.256Z,68.21
2022-09-07T01:05:59.437Z,68.77
2022-09-07T01:08:26.586Z,68.64
2022-09-07T01:10:54.515Z,68.77
2022-09-07T01:13:23.116Z,69.37
2022-09-07T01:16:03.243Z,69.59
2022-09-07T01:19:14.449Z,68.33
2022-09-07T01:21:56.223Z,66.61
2022-09-07T01:24:24.542Z,66.84
2022-09-07T01:27:12.035Z,67.30
2022-09-07T01:29:43.837Z,67.82
2022-09-07T01:32:45.740Z,68.14
2022-09-07T01:35:22.284Z,68.98
2022-09-07T01:38:27.619Z,69.15
2022-09-07T01:41:18.317Z,69.15
2022-09-07T01:44:15.335Z,70.08
2022-09-07T01:47:00.259Z,69.90
2022-09-07T01:49:27.113Z,69.64
2022-09-07T01:52:01.038Z,68.58
2022-09-07T01:54:40.540Z,68.92
2022-09-07T01:57:20.521Z,69.39
2022-09-07T01:59:58.307Z,70.00
2022-09-07T02:02:31.134Z,70.14
2022-09-07T02:05:07.845Z,70.34
2022-09-07T02:08:07.086Z,71.25
2022-09-07T02:10:40.313Z,71.00
2022-09-07T02:13:16.295Z,71.08
2022-09-07T02:15:50.387Z,71.05
2022-09-07T02:18:23.122Z,70.89
2022-09-07T02:20:54.651Z,70.19
2022-09-07T02:23:49.110Z,70.21
2022-09-07T02:26:21.798Z,70.81
2022-09-07T02:28:49.083Z,71.53
2022-09-07T02:31:16.476Z,71.77
2022-09-07T02:33:43.562Z,72.65
2022-09-07T02:36:13.583Z,72.98
2022-09-07T02:38:40.613Z,72.92
2022-09-07T02:41:32.207Z,72.81
2022-09-07T02:44:01.166Z,73.44
2022-09-07T02:46:46.305Z,72.61
2022-09-07T02:49:49.948Z,73.26
2022-09-07T02:52:31.783Z,73.77
2022-09-07T02:55:07.772Z,73.46
2022-09-07T02:58:03.358Z,73.51
2022-09-07T03:00:40.571Z,72.52
2022-09-07T03:03:26.113Z,72.56
2022-09-07T03:06:01.126Z,72.57
2022-09-07T03:08:39.637Z,72.70
2022-09-07T03:11:07.465Z,73.61
2022-09-07T03:13:34.423Z,74.26
2022-09-07T03:16:01.547Z,74.83
2022-09-07T03:18:29.218Z,74.57
2022-09-07T03:20:56.619Z,74.57
2022-09-07T03:23:23.927Z,73.58
2022-09-07T03:25:50.996Z,74.05
2022-09-07T03:28:18.253Z,73.85
2022-09-07T03:30:47.346Z,74.32
2022-09-07T03:33:18.365Z,74.78
2022-09-07T03:35:46.605Z,73.20
2022-09-07T03:38:13.595Z,72.80
2022-09-07T03:40:40.718Z,73.82
2022-09-07T03:43:07.626Z,75.12
2022-09-07T03:45:34.698Z,75.25
2022-09-07T03:48:01.709Z,75.06
2022-09-07T03:50:29.265Z,75.55
2022-09-07T03:52:56.276Z,76.17
2022-09-07T03:55:23.170Z,76.35
2022-09-07T03:57:50.084Z,76.75
2022-09-07T04:00:18.179Z,76.74
2022-09-07T04:02:45.192Z,77.41
2022-09-07T04:05:12.182Z,76.77
2022-09-07T04:07:39.166Z,76.68
2022-09-07T04:10:06.477Z,75.73
2022-09-07T04:12:33.479Z,75.39
2022-09-07T04:15:03.795Z,73.14
2022-09-07T04:17:30.748Z,72.69
2022-09-07T04:19:57.731Z,72.31
2022-09-07T04:22:24.776Z,71.71
2022-09-07T04:24:51.739Z,71.80
2022-09-07T04:27:18.643Z,72.29
2022-09-07T04:29:47.512Z,71.96
2022-09-07T04:32:15.926Z,71.26
2022-09-07T04:34:43.679Z,70.45
2022-09-07T04:37:12.635Z,68.97
2022-09-07T04:39:39.649Z,69.17
2022-09-07T04:42:06.793Z,69.72
2022-09-07T04:44:33.882Z,70.10
2022-09-07T04:47:00.868Z,69.16
2022-09-07T04:49:27.815Z,69.36
2022-09-07T04:51:54.744Z,68.65
2022-09-07T04:54:21.762Z,68.65
2022-09-07T04:56:48.747Z,68.57
2022-09-07T04:59:15.742Z,68.83
2022-09-07T05:01:43.123Z,68.96
2022-09-07T05:04:10.120Z,68.97
2022-09-07T05:06:37.211Z,68.31
2022-09-07T05:09:04.285Z,68.23
2022-09-07T05:11:31.297Z,67.90
2022-09-07T05:13:59.754Z,67.08
2022-09-07T05:16:28.218Z,65.76
2022-09-07T05:19:02.936Z,64.42
2022-09-07T05:21:32.936Z,64.38
2022-09-07T05:24:00.915Z,64.00
2022-09-07T05:26:30.878Z,63.67
2022-09-07T05:31:50.092Z,64.78
2022-09-07T05:34:33.227Z,64.51
2022-09-07T05:37:01.462Z,63.70
2022-09-07T05:39:28.902Z,63.30
2022-09-07T05:41:56.459Z,62.21
2022-09-07T05:47:10.661Z,61.89
2022-09-07T05:50:04.280Z,61.24
2022-09-07T05:52:31.465Z,60.62
2022-09-07T05:55:28.996Z,60.47
2022-09-07T05:57:57.573Z,60.37
2022-09-07T06:00:24.621Z,60.00
2022-09-07T06:02:51.920Z,59.35
2022-09-07T06:05:19.007Z,58.49
2022-09-07T06:07:49.117Z,57.80
2022-09-07T06:13:04.346Z,57.30
2022-09-07T06:15:36.984Z,57.30
2022-09-07T06:18:04.202Z,57.00
2022-09-07T06:20:31.315Z,56.51
2022-09-07T06:22:59.849Z,55.70
2022-09-07T06:25:26.981Z,55.42
2022-09-07T06:27:54.307Z,55.28
2022-09-07T06:30:21.775Z,55.40
2022-09-07T06:32:48.981Z,55.75
2022-09-07T06:35:16.147Z,55.84
2022-09-07T06:37:43.440Z,55.12
2022-09-07T06:40:12.142Z,55.50
2022-09-07T06:42:39.868Z,55.14
2022-09-07T06:45:11.290Z,54.40
2022-09-07T06:47:38.825Z,53.99
2022-09-07T06:50:06.184Z,53.96
2022-09-07T06:55:22.993Z,53.16
2022-09-07T06:57:53.122Z,53.08
2022-09-07T07:00:20.971Z,52.29
2022-09-07T07:02:48.482Z,52.48
2022-09-07T07:05:15.757Z,52.19
2022-09-07T07:07:42.817Z,51.76
2022-09-07T07:10:09.996Z,50.61
2022-09-07T07:15:03.449Z,49.31
2022-09-07T07:17:30.966Z,49.05
2022-09-07T07:19:58.996Z,49.10
2022-09-07T07:25:13.092Z,47.75
2022-09-07T07:27:43.460Z,45.60
2022-09-07T07:30:10.872Z,46.07
2022-09-07T07:32:38.374Z,44.95
2022-09-07T07:35:07.568Z,44.76
2022-09-07T07:37:36.646Z,44.46
2022-09-07T07:40:16.173Z,44.73
2022-09-07T07:42:46.165Z,45.12
2022-09-07T07:48:00.391Z,44.13
2022-09-07T07:50:31.228Z,43.07
2022-09-07T07:55:46.468Z,43.16
2022-09-07T07:58:13.448Z,41.65
2022-09-07T08:00:56.641Z,40.78
2022-09-07T08:03:25.014Z,40.98
2022-09-07T08:05:52.428Z,41.06
2022-09-07T08:08:19.970Z,41.31
2022-09-07T08:10:47.929Z,38.94
2022-09-07T08:13:16.778Z,38.42
2022-09-07T08:15:46.871Z,40.40
2022-09-07T08:18:17.549Z,39.71
2022-09-07T08:20:46.702Z,39.64
2022-09-07T08:23:14.967Z,40.84
2022-09-07T08:25:52.555Z,41.31
2022-09-07T08:28:22.360Z,41.23
2022-09-07T08:30:49.887Z,40.16
2022-09-07T08:33:17.231Z,39.97
2022-09-07T08:35:55.389Z,39.46
2022-09-07T08:38:22.634Z,39.36
2022-09-07T08:40:50.094Z,39.10
2022-09-07T08:43:36.021Z,39.20
2022-09-07T08:46:12.480Z,40.30
2022-09-07T08:48:40.535Z,40.97
2022-09-07T08:51:22.332Z,41.44
2022-09-07T08:53:51.499Z,40.98
2022-09-07T08:57:20.554Z,41.60
2022-09-07T08:59:41.698Z,42.94
2022-09-07T09:02:36.551Z,42.13
2022-09-07T09:05:20.599Z,41.53
2022-09-07T09:08:16.717Z,42.06
2022-09-07T09:10:57.148Z,42.26
2022-09-07T09:14:13.551Z,41.88
2022-09-07T09:16:42.871Z,41.81
2022-09-07T09:19:40.795Z,41.31
2022-09-07T09:22:13.911Z,41.53
2022-09-07T09:24:47.711Z,42.05
2022-09-07T09:27:16.221Z,42.08
2022-09-07T09:29:43.718Z,42.21
2022-09-07T09:32:30.317Z,41.66
2022-09-07T09:35:05.475Z,41.91
2022-09-07T09:37:38.158Z,41.57
2022-09-07T09:40:09.510Z,41.25
2022-09-07T09:42:38.904Z,41.80
2022-09-07T09:45:27.279Z,40.94
2022-09-07T09:47:54.979Z,40.25
2022-09-07T09:53:33.202Z,38.58
2022-09-07T09:56:07.602Z,38.64
2022-09-07T10:04:25.293Z,39.27
2022-09-07T10:06:58.072Z,39.40
2022-09-07T10:09:29.981Z,38.56
2022-09-07T10:12:06.707Z,37.95
2022-09-07T10:14:44.207Z,37.94
2022-09-07T10:17:30.933Z,36.94
2022-09-07T10:20:01.744Z,38.15
2022-09-07T10:22:32.217Z,38.41
2022-09-07T10:25:01.119Z,38.73
2022-09-07T10:27:33.814Z,39.24
2022-09-07T10:30:05.032Z,39.80
2022-09-07T10:32:59.139Z,38.67
2022-09-07T10:35:30.663Z,38.73
2022-09-07T10:38:18.122Z,38.47
2022-09-07T10:40:56.585Z,38.25
2022-09-07T10:43:38.368Z,38.35
2022-09-07T10:46:56.361Z,38.49
2022-09-07T10:49:30.515Z,37.70
2022-09-07T10:52:12.736Z,37.54
2022-09-07T10:55:01.321Z,37.66
2022-09-07T10:57:51.894Z,37.09
2022-09-07T11:00:35.123Z,36.99
2022-09-07T11:03:26.954Z,37.74
2022-09-07T11:06:18.665Z,37.15
2022-09-07T11:09:16.516Z,36.54
2022-09-07T11:12:08.234Z,36.57
2022-09-07T11:15:03.738Z,37.00
2022-09-07T11:17:38.550Z,37.36
2022-09-07T11:20:19.008Z,37.15
2022-09-07T11:22:56.637Z,37.58
2022-09-07T11:25:31.871Z,37.42
2022-09-07T11:28:07.691Z,37.38
2022-09-07T11:30:40.502Z,37.62
2022-09-07T11:33:20.135Z,38.40
2022-09-07T11:36:12.175Z,37.59
2022-09-07T11:38:48.598Z,38.22
2022-09-07T11:41:28.029Z,37.33
2022-09-07T11:44:04.013Z,36.63
2022-09-07T11:46:41.554Z,35.98
2022-09-07T11:49:26.068Z,36.66
2022-09-07T11:51:57.985Z,36.92
2022-09-07T11:54:34.460Z,36.64
2022-09-07T11:57:12.760Z,37.38
2022-09-07T11:59:48.262Z,37.19
2022-09-07T12:02:55.307Z,37.56
2022-09-07T12:05:51.465Z,36.88
2022-09-07T12:08:37.051Z,36.20
2022-09-07T12:11:31.600Z,36.11
2022-09-07T12:14:07.897Z,35.57
2022-09-07T12:17:00.902Z,36.48
2022-09-07T12:19:28.351Z,35.81
2022-09-07T12:21:59.899Z,36.38
2022-09-07T12:24:45.181Z,36.39
2022-09-07T12:27:21.317Z,35.65
2022-09-07T12:29:57.522Z,36.24
2022-09-07T12:32:54.995Z,37.15
2022-09-07T12:35:29.768Z,36.92
2022-09-07T12:38:03.575Z,36.68
2022-09-07T12:40:36.522Z,36.75
2022-09-07T12:43:13.156Z,36.34
2022-09-07T12:45:43.092Z,36.54
2022-09-07T12:48:10.112Z,36.10
2022-09-07T12:50:55.124Z,35.84
2022-09-07T12:53:42.676Z,35.27
2022-09-07T12:56:24.795Z,35.97
2022-09-07T12:59:20.268Z,36.09
2022-09-07T13:02:23.901Z,36.37
2022-09-07T13:05:15.695Z,36.27
2022-09-07T13:07:51.840Z,36.03
2022-09-07T13:10:34.209Z,36.41
2022-09-07T13:13:04.982Z,35.84
2022-09-07T13:15:40.995Z,36.45
2022-09-07T13:18:31.643Z,36.61
2022-09-07T13:21:07.873Z,36.89
2022-09-07T13:23:37.822Z,35.82
2022-09-07T13:26:32.537Z,35.17
2022-09-07T13:29:04.461Z,35.55
2022-09-07T13:31:34.076Z,35.75
2022-09-07T13:34:01.864Z,35.36
2022-09-07T13:36:48.458Z,36.09
2022-09-07T13:39:21.370Z,36.35
2022-09-07T13:45:28.641Z,36.70
2022-09-07T15:02:37.806Z,37.18
2022-09-07T15:05:23.334Z,37.10
2022-09-07T15:07:57.863Z,37.40
2022-09-07T15:10:25.597Z,37.25
2022-09-07T15:12:58.627Z,37.19
2022-09-07T15:15:39.645Z,37.99
2022-09-07T15:18:44.892Z,37.30
2022-09-07T15:21:11.807Z,37.13
2022-09-07T15:23:38.688Z,36.96
2022-09-07T15:26:06.152Z,37.86
2022-09-07T15:34:11.472Z,37.51
2022-09-07T15:36:43.330Z,38.14
2022-09-07T15:39:36.641Z,37.54
2022-09-07T15:44:51.159Z,37.84
2022-09-07T15:50:07.127Z,38.34
2022-09-07T15:52:34.124Z,38.91
2022-09-07T15:55:01.297Z,38.33
2022-09-07T17:34:19.828Z,45.29
2022-09-07T17:36:47.419Z,44.60
2022-09-07T17:39:17.186Z,44.55
2022-09-07T17:41:45.204Z,44.11
2022-09-07T17:44:12.202Z,43.95
2022-09-07T17:46:39.229Z,44.45
2022-09-07T17:49:10.360Z,45.08
2022-09-07T17:51:37.952Z,45.15
2022-09-07T17:54:10.933Z,45.16
2022-09-07T17:56:40.602Z,45.85
2022-09-07T18:01:54.962Z,45.57
2022-09-07T18:04:22.389Z,46.34
2022-09-07T18:06:49.967Z,46.72
2022-09-07T18:09:19.952Z,47.06
2022-09-07T18:11:49.090Z,47.58
2022-09-07T18:14:17.681Z,46.98
2022-09-07T18:16:45.713Z,47.55
2022-09-07T18:19:13.463Z,47.58
2022-09-07T18:21:42.319Z,47.83
2022-09-07T18:24:17.106Z,48.65
2022-09-07T18:26:49.958Z,47.36
2022-09-07T18:29:31.262Z,47.80
2022-09-07T18:32:02.216Z,48.00
2022-09-07T18:34:29.377Z,48.27
2022-09-07T18:36:58.195Z,48.67
2022-09-07T18:39:26.126Z,49.13
2022-09-07T18:41:54.876Z,48.51
2022-09-07T18:47:09.106Z,48.91
2022-09-07T18:49:37.421Z,49.30
2022-09-07T18:54:51.650Z,49.74
2022-09-07T18:57:18.965Z,50.92
2022-09-07T18:59:45.913Z,51.38
2022-09-07T19:02:14.212Z,50.85
2022-09-07T19:07:30.365Z,50.67
2022-09-07T19:09:58.071Z,50.19
2022-09-07T19:12:25.284Z,50.48
2022-09-07T19:14:52.237Z,49.86
2022-09-07T19:17:19.481Z,49.94
2022-09-07T19:19:46.450Z,49.57
2022-09-07T19:22:13.269Z,49.66
2022-09-07T19:24:40.111Z,50.38
2022-09-07T19:27:07.311Z,50.09
2022-09-07T19:29:35.612Z,49.44
2022-09-07T19:32:05.524Z,50.27
2022-09-07T19:34:37.361Z,49.96
2022-09-07T19:37:07.178Z,50.23
2022-09-07T19:39:34.239Z,51.90
2022-09-07T19:42:03.287Z,52.74
2022-09-07T19:44:30.659Z,52.78
2022-09-07T19:46:57.806Z,52.48
2022-09-07T19:49:24.718Z,52.60
2022-09-07T19:51:52.276Z,53.20
2022-09-07T19:54:19.237Z,53.89
2022-09-07T19:56:46.221Z,53.81
2022-09-07T19:59:13.531Z,53.12
2022-09-07T20:01:43.810Z,53.08
2022-09-07T20:04:17.423Z,53.25
2022-09-07T20:06:48.137Z,52.56
2022-09-07T20:09:15.008Z,52.01
2022-09-07T20:11:46.353Z,52.43
2022-09-07T20:14:17.519Z,51.82
2022-09-07T20:16:44.730Z,52.79
2022-09-07T20:19:14.616Z,53.52
2022-09-07T20:21:42.546Z,53.35
2022-09-07T20:24:12.374Z,52.52
2022-09-07T20:26:39.837Z,54.07
2022-09-07T20:31:54.604Z,54.03
2022-09-07T20:34:21.556Z,55.13
2022-09-07T20:36:51.479Z,55.00
2022-09-07T20:39:18.977Z,55.00
2022-09-07T20:41:46.458Z,54.65
2022-09-07T20:44:14.286Z,54.49
2022-09-07T20:46:41.281Z,54.12
2022-09-07T20:49:08.432Z,55.54
2022-09-07T20:51:35.432Z,56.31
2022-09-07T20:54:02.985Z,56.58
2022-09-07T20:56:30.945Z,56.79
2022-09-07T20:59:00.514Z,57.22
2022-09-07T21:01:29.018Z,58.11
2022-09-07T21:03:58.470Z,58.16
2022-09-07T21:06:26.939Z,58.58
2022-09-07T21:08:54.777Z,58.85
2022-09-07T21:11:24.390Z,58.23
2022-09-07T21:14:08.278Z,58.32
2022-09-07T21:16:36.211Z,57.88
2022-09-07T21:19:06.886Z,58.09
2022-09-07T21:21:38.562Z,57.21
2022-09-07T21:24:07.196Z,57.76
2022-09-07T21:26:34.143Z,57.83
2022-09-07T21:29:03.841Z,57.07
2022-09-07T21:31:33.705Z,56.81
2022-09-07T21:34:02.274Z,56.27
2022-09-07T21:36:29.850Z,55.24
2022-09-07T21:38:57.047Z,56.29
2022-09-07T21:41:25.195Z,57.11
2022-09-07T21:43:56.725Z,57.22
2022-09-07T21:46:24.736Z,57.33
2022-09-07T21:48:51.786Z,57.21
2022-09-07T21:51:19.637Z,56.76
2022-09-07T21:53:52.296Z,56.57
2022-09-07T21:56:20.056Z,56.36
2022-09-07T21:58:47.315Z,57.07
2022-09-07T22:01:17.318Z,56.82
2022-09-07T22:03:46.445Z,57.69
2022-09-07T22:06:14.589Z,57.19
2022-09-07T22:08:42.575Z,57.54
2022-09-07T22:11:15.234Z,57.82
2022-09-07T22:13:43.128Z,57.86
2022-09-07T22:16:11.096Z,57.85
2022-09-07T22:18:40.222Z,59.03
2022-09-07T22:21:09.977Z,58.61
2022-09-07T22:23:40.041Z,59.07
2022-09-07T22:26:07.913Z,59.54
2022-09-07T22:28:35.222Z,60.37
2022-09-07T22:31:13.475Z,59.43
2022-09-07T22:33:41.491Z,59.63
2022-09-07T22:36:12.839Z,60.67
2022-09-07T22:38:41.415Z,60.35
2022-09-07T22:41:23.278Z,59.40
2022-09-07T22:43:53.092Z,59.73
2022-09-07T22:46:22.352Z,60.02
2022-09-07T22:48:49.769Z,59.59
2022-09-07T22:51:17.435Z,60.33
2022-09-07T22:53:44.610Z,59.99
2022-09-07T22:56:15.930Z,59.88
2022-09-07T22:58:47.962Z,60.72
2022-09-07T23:01:15.168Z,60.02
2022-09-07T23:03:43.822Z,59.90
2022-09-07T23:06:28.978Z,59.95
2022-09-07T23:08:58.138Z,60.71
2022-09-07T23:11:25.663Z,61.42
2022-09-07T23:13:54.213Z,60.58
2022-09-07T23:16:21.562Z,60.40
2022-09-07T23:18:49.003Z,60.34
2022-09-07T23:21:16.243Z,60.62
2022-09-07T23:23:43.209Z,60.73
2022-09-07T23:26:10.064Z,59.99
2022-09-07T23:28:37.060Z,60.88
2022-09-07T23:31:04.012Z,61.00
2022-09-07T23:33:31.701Z,60.52
2022-09-07T23:36:04.658Z,61.04
2022-09-07T23:38:32.465Z,60.69
2022-09-07T23:41:00.353Z,61.08
2022-09-07T23:43:29.109Z,60.85
2022-09-07T23:45:56.405Z,60.57
2022-09-07T23:48:24.083Z,60.74
2022-09-07T23:50:50.933Z,60.80
2022-09-07T23:53:18.285Z,61.70
2022-09-07T23:55:46.483Z,62.85
2022-09-07T23:58:13.762Z,60.48
